Time;durP1;ratioP1;P1;durP2;ratioP2;P2;SDS_P1;SDS_P2;PMS_P1;PMS_P2;Temp;Humidity;BMP_temperature;BMP_pressure;BME280_temperature;BME280_humidity;BME280_pressure;Samples;Min_cycle;Max_cycle;Signal;HPM_P1;HPM_P2
2022/06/25 00:00:47;;;;;;;3.00;2.72;;;;;;;19.56;73.12;100613.09;4993623;28;102338;-48
2022/06/25 00:03:13;;;;;;;2.63;2.40;;;;;;;19.55;73.14;100615.06;4992099;28;104021;-48
2022/06/25 00:05:40;;;;;;;3.15;2.60;;;;;;;19.56;73.11;100613.09;4994434;28;102576;-48
2022/06/25 00:08:06;;;;;;;2.63;2.42;;;;;;;19.57;73.01;100622.97;4993580;28;102524;-48
2022/06/25 00:10:33;;;;;;;2.92;2.63;;;;;;;19.56;73.15;100637.94;4993671;28;102803;-47
2022/06/25 00:13:00;;;;;;;3.05;2.85;;;;;;;19.56;72.99;100637.94;4999297;28;104577;-47
2022/06/25 00:15:26;;;;;;;2.92;2.72;;;;;;;19.55;73.00;100626.09;4997593;28;102276;-47
2022/06/25 00:17:54;;;;;;;2.50;2.30;;;;;;;19.56;73.33;100621.38;5000025;28;102498;-48
2022/06/25 00:20:21;;;;;;;3.10;2.90;;;;;;;19.56;73.03;100629.66;4999935;28;102688;-48
2022/06/25 00:22:47;;;;;;;3.47;3.17;;;;;;;19.55;72.97;100617.81;4997751;28;103866;-48
2022/06/25 00:25:14;;;;;;;3.15;2.88;;;;;;;19.55;73.17;100620.56;5000297;28;102100;-47
2022/06/25 00:27:41;;;;;;;3.30;3.00;;;;;;;19.56;73.15;100618.63;5000220;28;102531;-48
2022/06/25 00:30:08;;;;;;;2.75;2.55;;;;;;;19.56;73.35;100618.63;5000028;28;103729;-48
2022/06/25 00:32:36;;;;;;;2.78;2.58;;;;;;;19.56;72.93;100613.09;4999009;28;104080;-48
2022/06/25 00:35:05;;;;;;;2.97;2.78;;;;;;;19.55;73.08;100609.53;4999161;28;101952;-48
2022/06/25 00:37:32;;;;;;;2.90;2.70;;;;;;;19.56;73.13;100608.38;4999543;28;102343;-47
2022/06/25 00:39:59;;;;;;;3.25;2.70;;;;;;;19.55;73.14;100614.25;4999910;28;102274;-47
2022/06/25 00:42:25;;;;;;;3.25;2.90;;;;;;;19.55;73.18;100617.81;4998328;28;103866;-47
2022/06/25 00:44:53;;;;;;;3.03;2.83;;;;;;;19.54;73.15;100607.09;4999654;28;102474;-47
2022/06/25 00:47:20;;;;;;;4.57;2.53;;;;;;;19.54;73.03;100613.41;4999629;28;103852;-47
2022/06/25 00:49:46;;;;;;;2.90;2.70;;;;;;;19.55;73.25;100608.72;4999907;28;102189;-48
2022/06/25 00:52:17;;;;;;;2.88;2.67;;;;;;;19.54;73.07;100607.09;4998979;28;103919;-47
2022/06/25 00:54:49;;;;;;;3.25;3.00;;;;;;;19.56;73.18;100610.34;4998809;28;102418;-47
2022/06/25 00:57:18;;;;;;;3.65;2.80;;;;;;;19.55;73.10;100609.53;4998667;28;101964;-47
2022/06/25 00:59:49;;;;;;;3.00;2.60;;;;;;;19.55;72.86;100611.50;5000338;28;102402;-47
2022/06/25 01:02:17;;;;;;;3.08;2.78;;;;;;;19.54;73.03;100612.59;4999512;28;104019;-48
2022/06/25 01:04:43;;;;;;;5.95;3.20;;;;;;;19.54;73.11;100624.44;4999882;28;102069;-47
2022/06/25 01:07:10;;;;;;;2.65;2.45;;;;;;;19.55;72.97;100623.34;4999329;28;102419;-48
2022/06/25 01:09:40;;;;;;;3.13;2.83;;;;;;;19.55;73.28;100619.78;4999744;28;102281;-48
2022/06/25 01:12:07;;;;;;;2.75;2.55;;;;;;;19.55;73.21;100620.56;4979712;28;104075;-47
2022/06/25 01:14:34;;;;;;;2.80;2.50;;;;;;;19.55;73.12;100617.00;4998336;28;102215;-48
2022/06/25 01:17:04;;;;;;;3.05;2.85;;;;;;;19.55;73.00;100614.25;4999352;28;102521;-47
2022/06/25 01:19:34;;;;;;;2.63;2.42;;;;;;;19.54;73.30;100616.16;5000084;28;101979;-48
2022/06/25 01:22:04;;;;;;;2.97;2.78;;;;;;;19.56;73.20;100615.84;4999146;28;103976;-48
2022/06/25 01:24:31;;;;;;;2.65;2.42;;;;;;;19.54;73.06;100618.94;4994640;28;101980;-50
2022/06/25 01:26:58;;;;;;;3.08;2.88;;;;;;;19.54;72.62;100618.94;4984411;28;102115;-48
2022/06/25 01:29:25;;;;;;;2.90;2.70;;;;;;;19.55;73.24;100619.78;4996693;28;102408;-47
2022/06/25 01:31:51;;;;;;;2.78;2.58;;;;;;;19.56;72.74;100615.84;4995722;28;104034;-48
2022/06/25 01:34:18;;;;;;;2.83;2.63;;;;;;;19.54;73.13;100604.31;4994602;28;102281;-47
2022/06/25 01:36:44;;;;;;;2.90;2.70;;;;;;;19.54;72.86;100612.59;4995716;28;104845;-48
2022/06/25 01:39:12;;;;;;;2.50;2.30;;;;;;;19.55;73.16;100625.28;4996130;28;102101;-47
2022/06/25 01:41:40;;;;;;;2.58;2.38;;;;;;;19.55;72.93;100614.25;4995443;28;104137;-48
2022/06/25 01:44:07;;;;;;;2.80;2.60;;;;;;;19.55;72.80;100622.53;4996360;28;102940;-47
2022/06/25 01:46:33;;;;;;;3.13;2.92;;;;;;;19.54;73.13;100626.41;4995588;28;102324;-48
2022/06/25 01:49:00;;;;;;;3.22;2.97;;;;;;;19.55;73.04;100631.63;4996294;28;102458;-48
2022/06/25 01:51:26;;;;;;;2.60;2.40;;;;;;;19.54;73.05;100623.66;4994470;28;103931;-47
2022/06/25 01:53:53;;;;;;;2.90;2.70;;;;;;;19.54;73.28;100620.88;4994587;28;102058;-47
2022/06/25 01:56:21;;;;;;;2.97;2.78;;;;;;;19.54;73.22;100626.41;4994403;28;102288;-47
2022/06/25 01:58:48;;;;;;;2.90;2.70;;;;;;;19.54;73.49;100623.66;4996089;28;102540;-48
2022/06/25 02:01:14;;;;;;;3.10;2.90;;;;;;;19.53;73.34;100622.03;4995206;28;103898;-48
2022/06/25 02:03:41;;;;;;;2.75;2.55;;;;;;;19.52;73.01;100621.22;4995769;28;102434;-47
2022/06/25 02:06:08;;;;;;;2.97;2.78;;;;;;;19.53;73.15;100627.56;4993177;28;102326;-48
2022/06/25 02:08:36;;;;;;;2.90;2.50;;;;;;;19.53;73.15;100622.03;4996548;28;102621;-48
2022/06/25 02:11:06;;;;;;;2.80;2.60;;;;;;;19.53;73.05;100622.03;4992728;28;104186;-48
2022/06/25 02:13:34;;;;;;;2.92;2.72;;;;;;;19.53;72.80;100631.13;4995046;28;102259;-48
2022/06/25 02:16:02;;;;;;;2.88;2.58;;;;;;;19.53;73.48;100633.88;4993980;28;102047;-48
2022/06/25 02:18:29;;;;;;;4.33;2.67;;;;;;;19.53;73.06;100638.59;4997034;28;102244;-47
2022/06/25 02:20:55;;;;;;;4.13;2.78;;;;;;;19.53;73.15;100635.84;4993450;28;103890;-48
2022/06/25 02:23:23;;;;;;;2.95;2.75;;;;;;;19.52;73.19;100634.22;4994313;28;102959;-48
2022/06/25 02:25:50;;;;;;;2.83;2.63;;;;;;;19.51;72.96;100629.84;4984425;28;102781;-47
2022/06/25 02:28:18;;;;;;;2.90;2.70;;;;;;;19.51;73.34;100629.84;4996184;28;102554;-48
2022/06/25 02:30:46;;;;;;;2.80;2.60;;;;;;;19.52;73.03;100625.94;4992819;28;104071;-48
2022/06/25 02:33:14;;;;;;;3.15;2.95;;;;;;;19.51;73.28;100627.06;4994230;28;102740;-48
2022/06/25 02:35:42;;;;;;;3.20;3.00;;;;;;;19.50;73.44;100631.78;4994244;28;102405;-48
2022/06/25 02:38:10;;;;;;;3.20;2.92;;;;;;;19.50;73.10;100633.75;4996536;28;102395;-48
2022/06/25 02:40:37;;;;;;;2.40;2.30;;;;;;;19.51;73.21;100641.72;4993324;28;103933;-48
2022/06/25 02:43:05;;;;;;;3.10;2.80;;;;;;;19.50;72.91;100639.25;4995023;28;102223;-47
2022/06/25 02:45:31;;;;;;;2.90;2.70;;;;;;;19.49;73.12;100638.47;4993791;28;102304;-48
2022/06/25 02:47:59;;;;;;;3.90;2.42;;;;;;;19.50;72.83;100647.53;4996556;28;102269;-48
2022/06/25 02:50:26;;;;;;;3.20;2.90;;;;;;;19.48;72.88;100645.13;4993345;28;104006;-48
2022/06/25 02:52:53;;;;;;;2.70;2.50;;;;;;;19.47;72.85;100645.44;4993716;28;102115;-48
2022/06/25 02:58:54;;;;;;;2.80;2.60;;;;;;;19.48;73.18;100652.59;4994547;28;102187;-47
2022/06/25 03:01:08;;;;;;;2.95;2.72;;;;;;;19.47;72.78;100646.25;4974340;28;107907;-47
2022/06/25 03:03:36;;;;;;;3.13;2.72;;;;;;;19.48;72.77;100647.09;4982396;28;101874;-48
2022/06/25 03:06:02;;;;;;;3.50;3.20;;;;;;;19.47;72.96;100642.69;4993479;28;102111;-48
2022/06/25 03:08:32;;;;;;;3.35;3.15;;;;;;;19.46;73.14;100639.13;4995110;28;102159;-48
2022/06/25 03:11:00;;;;;;;3.40;3.10;;;;;;;19.47;72.88;100639.94;4994070;28;104105;-48
2022/06/25 03:13:26;;;;;;;3.05;2.85;;;;;;;19.48;72.69;100642.38;4995325;28;102462;-48
2022/06/25 03:15:53;;;;;;;3.05;2.78;;;;;;;19.48;73.17;100642.38;4992159;28;102433;-48
2022/06/25 03:18:20;;;;;;;3.08;2.88;;;;;;;19.48;73.16;100647.09;4991996;28;102522;-48
2022/06/25 03:20:50;;;;;;;3.10;2.90;;;;;;;19.47;72.82;100643.50;4991153;28;103886;-48
2022/06/25 03:23:17;;;;;;;3.20;2.90;;;;;;;19.48;72.67;100642.38;4994791;28;102444;-48
2022/06/25 03:25:43;;;;;;;3.38;3.10;;;;;;;19.47;72.96;100646.25;4992687;28;103182;-47
2022/06/25 03:28:10;;;;;;;3.10;2.90;;;;;;;19.48;72.63;100647.09;4995847;28;102433;-48
2022/06/25 03:30:37;;;;;;;3.20;3.00;;;;;;;19.48;72.92;100658.13;4993721;28;103943;-48
2022/06/25 03:33:03;;;;;;;3.88;2.75;;;;;;;19.49;73.14;100662.50;4994508;28;106777;-48
2022/06/25 03:35:30;;;;;;;2.85;2.65;;;;;;;19.48;73.21;100658.94;4993529;28;104002;-48
2022/06/25 03:37:58;;;;;;;3.13;2.92;;;;;;;19.48;73.14;100664.44;4994040;28;102369;-48
2022/06/25 03:40:25;;;;;;;3.20;2.90;;;;;;;19.48;72.96;100666.41;4993284;28;103806;-48
2022/06/25 03:42:52;;;;;;;4.25;2.97;;;;;;;19.49;73.45;100668.00;4994408;28;102298;-48
2022/06/25 03:45:19;;;;;;;3.60;2.85;;;;;;;19.48;73.21;100669.16;4993281;28;102276;-48
2022/06/25 03:47:50;;;;;;;3.95;3.03;;;;;;;19.48;73.14;100663.66;4992775;28;102203;-47
2022/06/25 03:50:17;;;;;;;3.50;3.20;;;;;;;19.48;73.11;100663.66;4993284;28;104183;-49
2022/06/25 03:52:43;;;;;;;3.10;2.88;;;;;;;19.49;73.00;100659.75;4991722;28;103522;-48
2022/06/25 03:55:11;;;;;;;3.53;2.88;;;;;;;19.49;72.81;100671.59;4990093;28;102266;-48
2022/06/25 03:57:38;;;;;;;3.00;2.80;;;;;;;19.51;73.10;100674.00;4990066;28;102178;-48
2022/06/25 04:00:06;;;;;;;3.20;2.90;;;;;;;19.51;72.91;100680.34;4993540;28;104067;-49
2022/06/25 04:02:33;;;;;;;3.08;2.88;;;;;;;19.52;73.08;100683.91;4993258;28;102061;-49
2022/06/25 04:05:00;;;;;;;3.85;3.33;;;;;;;19.51;72.68;100679.50;4993424;28;102258;-48
2022/06/25 04:07:27;;;;;;;3.67;3.38;;;;;;;19.53;72.49;100689.09;4994572;28;102623;-48
2022/06/25 04:09:53;;;;;;;3.10;2.80;;;;;;;19.54;72.94;100689.91;4993030;28;103981;-48
2022/06/25 04:12:21;;;;;;;3.47;2.75;;;;;;;19.55;72.72;100686.00;4993844;28;104160;-48
2022/06/25 04:14:48;;;;;;;2.95;2.75;;;;;;;19.55;72.60;100683.25;4992722;28;102813;-48
2022/06/25 04:17:14;;;;;;;3.28;2.97;;;;;;;19.55;72.76;100680.50;4994629;28;102388;-48
2022/06/25 04:19:41;;;;;;;3.35;3.05;;;;;;;19.57;72.57;100698.31;4992607;28;104422;-48
2022/06/25 04:22:08;;;;;;;2.97;2.78;;;;;;;19.57;72.90;100694.75;4992816;28;102392;-47
2022/06/25 04:24:36;;;;;;;3.33;3.08;;;;;;;19.58;72.81;100696.38;4992819;28;102234;-48
2022/06/25 04:27:03;;;;;;;4.55;3.38;;;;;;;19.60;72.38;100699.63;4994431;28;102308;-48
2022/06/25 04:29:31;;;;;;;3.22;3.00;;;;;;;19.61;72.44;100706.75;4991548;28;103909;-48
2022/06/25 04:31:58;;;;;;;3.50;3.20;;;;;;;19.60;72.16;100699.63;4993734;28;102461;-48
2022/06/25 04:34:25;;;;;;;3.20;2.90;;;;;;;19.59;72.42;100696.06;4992055;28;102196;-48
2022/06/25 04:36:51;;;;;;;3.50;3.20;;;;;;;19.61;72.57;100704.00;4993831;28;102096;-48
2022/06/25 04:39:18;;;;;;;3.28;3.08;;;;;;;19.60;72.23;100697.66;4992037;28;104267;-48
2022/06/25 04:41:46;;;;;;;3.85;3.55;;;;;;;19.61;72.63;100687.44;4993282;28;102457;-48
2022/06/25 04:44:15;;;;;;;3.50;3.20;;;;;;;19.63;72.54;100693.47;4993422;28;102279;-48
2022/06/25 04:46:43;;;;;;;4.70;3.45;;;;;;;19.64;71.93;100684.03;4994599;28;102322;-48
2022/06/25 04:49:10;;;;;;;3.47;3.25;;;;;;;19.65;72.15;100685.66;4992595;28;103748;-48
2022/06/25 04:51:37;;;;;;;3.38;3.08;;;;;;;19.65;72.14;100691.16;4993049;28;102596;-48
2022/06/25 04:54:06;;;;;;;4.15;3.80;;;;;;;19.66;71.89;100688.09;4993455;28;102189;-48
2022/06/25 04:56:33;;;;;;;4.10;3.72;;;;;;;19.67;71.45;100691.66;4993745;28;102513;-48
2022/06/25 04:58:59;;;;;;;5.72;3.00;;;;;;;19.68;71.45;100691.31;4994585;28;103908;-48
2022/06/25 05:01:26;;;;;;;4.05;3.47;;;;;;;19.70;71.48;100693.75;4994068;28;102525;-48
2022/06/25 05:03:54;;;;;;;3.58;3.28;;;;;;;19.69;71.91;100703.19;4996487;28;102305;-48
2022/06/25 05:06:21;;;;;;;3.90;3.60;;;;;;;19.72;71.72;100701.69;4996029;28;102559;-48
2022/06/25 05:08:47;;;;;;;4.20;3.83;;;;;;;19.72;71.24;100691.44;4990105;28;103920;-48
2022/06/25 05:11:15;;;;;;;3.78;3.47;;;;;;;19.72;71.92;100691.44;4996086;28;103681;-49
2022/06/25 05:13:42;;;;;;;4.20;3.83;;;;;;;19.74;72.02;100699.41;4996179;28;102247;-49
2022/06/25 05:16:09;;;;;;;3.88;3.58;;;;;;;19.77;71.61;100698.75;4993460;28;102262;-48
2022/06/25 05:18:35;;;;;;;5.65;4.35;;;;;;;19.76;71.32;100706.19;4993363;28;104195;-49
2022/06/25 05:21:03;;;;;;;4.85;4.22;;;;;;;19.77;71.33;100699.56;4994603;28;102479;-49
2022/06/25 05:23:30;;;;;;;4.78;3.85;;;;;;;19.80;71.64;100703.59;4997026;28;102260;-49
2022/06/25 05:25:57;;;;;;;4.40;4.00;;;;;;;19.80;71.70;100707.19;4987294;28;102181;-48
2022/06/25 05:28:23;;;;;;;5.25;4.82;;;;;;;19.81;71.27;100706.03;4994613;28;104035;-48
2022/06/25 05:30:50;;;;;;;4.70;4.30;;;;;;;19.84;71.40;100708.13;4995118;28;103292;-48
2022/06/25 05:33:16;;;;;;;4.82;4.30;;;;;;;19.85;71.36;100709.72;4995513;28;102211;-48
2022/06/25 05:35:43;;;;;;;5.63;4.57;;;;;;;19.86;71.55;100719.63;4997527;28;103486;-48
2022/06/25 05:38:11;;;;;;;4.82;4.38;;;;;;;19.89;71.04;100718.97;4996559;28;103868;-49
2022/06/25 05:40:38;;;;;;;4.97;4.35;;;;;;;19.90;70.79;100720.56;4997015;28;102211;-48
2022/06/25 05:43:05;;;;;;;4.50;4.10;;;;;;;19.93;71.18;100725.44;4996657;28;102549;-48
2022/06/25 05:45:32;;;;;;;5.20;4.80;;;;;;;19.93;71.18;100725.44;4998562;28;102205;-48
2022/06/25 05:47:59;;;;;;;4.25;3.95;;;;;;;19.94;71.20;100731.78;4996171;28;103927;-48
2022/06/25 05:50:25;;;;;;;4.43;4.13;;;;;;;19.96;70.66;100729.50;4995692;28;102207;-48
2022/06/25 05:52:53;;;;;;;4.53;4.13;;;;;;;19.96;71.08;100735.03;4992408;28;102451;-48
2022/06/25 05:55:22;;;;;;;7.45;4.45;;;;;;;19.96;70.94;100734.22;4996307;28;102479;-48
2022/06/25 05:57:49;;;;;;;4.93;4.32;;;;;;;19.96;70.95;100728.69;4992827;28;104038;-48
2022/06/25 06:00:16;;;;;;;6.13;5.20;;;;;;;19.96;70.97;100731.44;4994865;28;102014;-48
2022/06/25 06:02:42;;;;;;;4.88;3.85;;;;;;;19.98;70.98;100738.28;4994583;28;102395;-48
2022/06/25 06:05:09;;;;;;;5.13;4.63;;;;;;;20.02;70.69;100744.75;4996416;28;102286;-48
2022/06/25 06:07:37;;;;;;;5.15;4.65;;;;;;;20.05;70.71;100737.72;4990225;28;103925;-48
2022/06/25 06:10:05;;;;;;;4.45;4.05;;;;;;;20.06;70.73;100744.88;4990935;28;102327;-48
2022/06/25 06:12:35;;;;;;;5.00;4.60;;;;;;;20.07;70.72;100746.50;4996081;28;102623;-48
2022/06/25 06:15:03;;;;;;;4.43;4.03;;;;;;;20.06;70.84;100742.13;4997202;28;102646;-48
2022/06/25 06:17:31;;;;;;;6.00;4.53;;;;;;;20.05;70.91;100748.75;4995409;28;104663;-49
2022/06/25 06:19:58;;;;;;;4.50;4.10;;;;;;;20.05;71.13;100748.75;4996507;28;102007;-47
2022/06/25 06:22:25;;;;;;;4.70;4.30;;;;;;;20.04;70.96;100747.97;4995782;28;102067;-48
2022/06/25 06:24:51;;;;;;;4.88;4.47;;;;;;;20.05;71.14;100744.06;4995481;28;102132;-48
2022/06/25 06:27:18;;;;;;;4.97;4.40;;;;;;;20.07;70.86;100752.00;4978607;28;104513;-48
2022/06/25 06:29:46;;;;;;;4.57;4.18;;;;;;;20.09;70.92;100756.06;4996712;28;102193;-48
2022/06/25 06:32:13;;;;;;;4.23;3.83;;;;;;;20.12;70.42;100754.56;4995618;28;102302;-48
2022/06/25 06:34:42;;;;;;;4.95;4.55;;;;;;;20.13;70.25;100757.03;4996645;28;102233;-48
2022/06/25 06:37:09;;;;;;;4.85;4.40;;;;;;;20.20;70.23;100761.22;4993800;28;104067;-48
2022/06/25 06:39:35;;;;;;;4.63;4.18;;;;;;;20.20;70.02;100763.97;4994424;28;102062;-48
2022/06/25 06:42:02;;;;;;;4.60;4.20;;;;;;;20.20;69.95;100767.53;4993517;28;103613;-48
2022/06/25 06:44:29;;;;;;;4.63;4.20;;;;;;;20.19;69.77;100765.09;4996192;28;102473;-48
2022/06/25 06:46:57;;;;;;;5.28;4.72;;;;;;;20.15;69.76;100770.47;4993312;28;104028;-48
2022/06/25 06:49:23;;;;;;;5.15;4.68;;;;;;;20.15;69.71;100757.47;4996020;28;102143;-48
2022/06/25 06:51:51;;;;;;;6.63;4.70;;;;;;;20.17;69.69;100757.16;4993444;28;102238;-47
2022/06/25 06:54:18;;;;;;;5.20;4.70;;;;;;;20.20;69.47;100755.69;4988554;28;102696;-48
2022/06/25 06:56:44;;;;;;;5.03;4.63;;;;;;;20.35;69.55;100741.25;4991243;28;103978;-58
2022/06/25 06:59:11;;;;;;;13.30;4.88;;;;;;;20.48;69.54;100745.69;4976650;28;102547;-54
2022/06/25 07:01:37;;;;;;;10.80;4.82;;;;;;;20.42;69.75;100749.03;4993950;28;102344;-47
2022/06/25 07:04:09;;;;;;;14.98;5.35;;;;;;;20.34;70.17;100758.97;4992411;28;102656;-48
2022/06/25 07:06:35;;;;;;;8.00;4.60;;;;;;;20.31;69.93;100749.41;4989288;28;103996;-49
2022/06/25 07:09:03;;;;;;;10.00;5.00;;;;;;;20.31;70.13;100746.66;4993207;28;104055;-48
2022/06/25 07:11:32;;;;;;;8.55;5.00;;;;;;;20.31;70.06;100757.72;4990727;28;102631;-48
2022/06/25 07:14:00;;;;;;;7.18;4.30;;;;;;;20.28;69.75;100743.75;4995269;28;102323;-49
2022/06/25 07:16:27;;;;;;;6.93;4.30;;;;;;;20.27;69.95;100754.00;4992953;28;103955;-49
2022/06/25 07:18:55;;;;;;;13.77;4.72;;;;;;;20.27;69.88;100751.25;4993442;28;102263;-48
2022/06/25 07:21:24;;;;;;;9.52;4.28;;;;;;;20.30;69.96;100761.63;4991169;28;102231;-48
2022/06/25 07:23:50;;;;;;;8.82;4.82;;;;;;;20.32;70.00;100755.75;4995152;28;102269;-48
2022/06/25 07:26:18;;;;;;;7.78;4.47;;;;;;;20.28;70.04;100746.53;4978695;28;103833;-49
2022/06/25 07:28:45;;;;;;;9.88;4.57;;;;;;;20.26;70.02;100752.38;4990342;28;102222;-48
2022/06/25 07:31:12;;;;;;;7.55;4.63;;;;;;;20.27;69.80;100756.78;4994697;28;102180;-48
2022/06/25 07:33:38;;;;;;;7.32;4.32;;;;;;;20.24;69.72;100754.66;4996687;28;102693;-49
2022/06/25 07:36:06;;;;;;;5.60;4.78;;;;;;;20.26;69.92;100757.88;4994653;28;103944;-48
2022/06/25 07:38:35;;;;;;;6.43;4.60;;;;;;;20.26;69.44;100766.19;4995994;28;102004;-48
2022/06/25 07:41:02;;;;;;;9.60;5.10;;;;;;;20.25;69.87;100764.56;4994955;28;102359;-48
2022/06/25 07:43:29;;;;;;;7.10;5.00;;;;;;;20.23;70.37;100772.41;4996146;28;102135;-49
2022/06/25 07:45:57;;;;;;;8.15;5.15;;;;;;;20.20;70.40;100772.25;4995280;28;104348;-48
2022/06/25 07:48:24;;;;;;;5.35;4.85;;;;;;;20.18;70.55;100772.59;4995491;28;102338;-49
2022/06/25 07:53:37;;;;;;;5.75;5.00;;;;;;;20.19;70.23;100779.72;4995642;28;102215;-47
2022/06/25 07:56:04;;;;;;;6.97;4.82;;;;;;;20.19;70.30;100789.97;4992501;28;103812;-49
2022/06/25 07:58:32;;;;;;;5.90;4.75;;;;;;;20.18;70.22;100786.41;4994663;28;102252;-48
2022/06/25 08:00:58;;;;;;;5.10;4.70;;;;;;;20.18;70.58;100780.88;4995004;28;102108;-48
2022/06/25 08:03:25;;;;;;;7.03;5.32;;;;;;;20.17;70.32;100784.78;4995484;28;102224;-47
2022/06/25 08:05:53;;;;;;;5.03;4.60;;;;;;;20.18;70.39;100794.69;4993022;28;103905;-48
2022/06/25 08:08:19;;;;;;;6.60;5.65;;;;;;;20.19;70.14;100784.44;4994065;28;102479;-48
2022/06/25 08:10:48;;;;;;;5.72;4.93;;;;;;;20.18;70.26;100786.41;4994410;28;102218;-48
2022/06/25 08:13:15;;;;;;;7.70;5.13;;;;;;;20.16;70.39;100792.28;4995505;28;102149;-49
2022/06/25 08:15:42;;;;;;;7.68;5.05;;;;;;;20.17;70.34;100779.25;4994640;28;104140;-48
2022/06/25 08:18:08;;;;;;;6.05;5.45;;;;;;;20.18;70.45;100780.88;4995088;28;102568;-51
2022/06/25 08:20:35;;;;;;;6.25;5.65;;;;;;;20.19;69.92;100776.94;4994783;28;101965;-48
2022/06/25 08:23:01;;;;;;;5.43;4.93;;;;;;;20.18;70.05;100786.41;4994777;28;102184;-48
2022/06/25 08:25:28;;;;;;;6.07;4.72;;;;;;;20.12;70.67;100777.50;4993694;28;103992;-47
2022/06/25 08:27:56;;;;;;;5.07;4.63;;;;;;;20.11;70.73;100786.13;4994201;28;102182;-50
2022/06/25 08:30:23;;;;;;;4.93;4.53;;;;;;;20.13;70.75;100794.91;4994741;28;102349;-48
2022/06/25 08:32:51;;;;;;;5.07;4.68;;;;;;;20.11;70.60;100780.59;4996018;28;102262;-48
2022/06/25 08:35:17;;;;;;;5.78;5.00;;;;;;;20.14;70.66;100790.97;4997753;28;103935;-48
2022/06/25 08:37:45;;;;;;;5.00;4.60;;;;;;;20.15;70.67;100785.09;4997980;28;102088;-48
2022/06/25 08:40:13;;;;;;;5.47;4.97;;;;;;;20.14;70.61;100790.97;4997622;28;102095;-48
2022/06/25 08:42:40;;;;;;;5.10;4.40;;;;;;;20.14;70.57;100794.53;4998499;28;102120;-48
2022/06/25 08:45:09;;;;;;;5.05;4.65;;;;;;;20.14;70.76;100788.22;4997294;28;103860;-48
2022/06/25 08:47:42;;;;;;;4.93;4.47;;;;;;;20.13;70.79;100794.91;4994350;28;102216;-48
2022/06/25 08:50:10;;;;;;;6.13;4.75;;;;;;;20.13;70.62;100789.38;4977532;28;102107;-49
2022/06/25 08:52:37;;;;;;;4.75;4.35;;;;;;;20.15;70.56;100798.91;4978681;28;102599;-48
2022/06/25 08:55:06;;;;;;;4.70;4.28;;;;;;;20.14;70.67;100790.97;4977955;28;104057;-48
2022/06/25 08:57:32;;;;;;;5.25;4.85;;;;;;;20.14;70.69;100796.50;4977610;28;102364;-48
2022/06/25 08:59:59;;;;;;;5.95;4.93;;;;;;;20.13;70.76;100803.19;4977658;28;102512;-49
2022/06/25 09:02:27;;;;;;;5.38;4.88;;;;;;;20.11;70.63;100808.22;4979101;28;102736;-48
2022/06/25 09:04:54;;;;;;;6.03;5.43;;;;;;;20.13;70.60;100811.47;4997589;28;103959;-49
2022/06/25 09:07:21;;;;;;;5.30;4.80;;;;;;;20.13;70.59;100808.72;4997321;28;102221;-48
2022/06/25 09:09:51;;;;;;;6.03;5.53;;;;;;;20.09;70.95;100810.53;4997669;28;101987;-49
2022/06/25 09:12:19;;;;;;;5.50;5.00;;;;;;;20.09;70.77;100816.03;4980821;28;102192;-48
2022/06/25 09:14:46;;;;;;;5.38;4.97;;;;;;;20.09;70.76;100807.75;4997590;28;103816;-48
2022/06/25 09:17:16;;;;;;;4.68;4.20;;;;;;;20.08;70.90;100811.63;4997311;28;102463;-48
2022/06/25 09:19:47;;;;;;;5.40;5.00;;;;;;;20.07;70.75;100801.75;4996936;28;102646;-48
2022/06/25 09:22:15;;;;;;;5.32;4.88;;;;;;;20.07;70.68;100810.03;4997844;28;101979;-49
2022/06/25 09:24:44;;;;;;;5.97;5.40;;;;;;;20.07;70.73;100812.78;4996836;28;104069;-48
2022/06/25 09:27:11;;;;;;;5.82;5.32;;;;;;;20.07;70.76;100812.78;4997011;28;102289;-48
2022/06/25 09:29:42;;;;;;;5.68;5.13;;;;;;;20.06;70.74;100813.94;4997741;28;102389;-48
2022/06/25 09:32:10;;;;;;;5.72;5.15;;;;;;;20.05;70.74;100809.53;4997535;28;102287;-47
2022/06/25 09:34:40;;;;;;;5.70;5.20;;;;;;;20.03;70.71;100809.88;4996044;28;108107;-49
2022/06/25 09:37:22;;;;;;;5.55;5.05;;;;;;;20.04;70.94;100808.72;4997136;28;102193;-49
2022/06/25 09:39:53;;;;;;;6.25;5.60;;;;;;;20.06;71.04;100805.66;4996973;28;102367;-48
2022/06/25 09:42:22;;;;;;;6.57;5.22;;;;;;;20.07;70.80;100818.31;4997843;28;102343;-48
2022/06/25 09:44:58;;;;;;;5.07;4.40;;;;;;;20.09;70.76;100813.28;4996189;28;104479;-49
2022/06/25 09:47:26;;;;;;;4.97;4.57;;;;;;;20.10;70.84;100824.00;4995086;28;102140;-48
2022/06/25 09:50:03;;;;;;;5.97;5.47;;;;;;;20.09;70.92;100816.84;4980818;28;102216;-48
2022/06/25 09:52:33;;;;;;;5.43;4.88;;;;;;;20.13;70.70;100819.75;4979654;28;102083;-48
2022/06/25 09:55:00;;;;;;;5.75;5.28;;;;;;;20.14;70.72;100821.38;4996122;28;103746;-49
2022/06/25 09:57:27;;;;;;;5.53;5.03;;;;;;;20.14;70.73;100824.13;4995025;28;103324;-49
2022/06/25 09:59:55;;;;;;;5.78;5.18;;;;;;;20.13;70.82;100828.06;4996569;28;102611;-49
2022/06/25 10:02:26;;;;;;;5.93;5.43;;;;;;;20.11;70.84;100822.03;4977701;28;102437;-48
2022/06/25 10:04:57;;;;;;;5.78;5.25;;;;;;;20.11;70.76;100825.59;4976294;28;103894;-48
2022/06/25 10:07:59;;;;;;;5.50;5.00;;;;;;;20.11;70.88;100822.84;4976546;28;101910;-48
2022/06/25 10:10:17;;;;;;;7.55;5.50;;;;;;;20.13;70.81;100817.00;4976606;28;102246;-49
2022/06/25 10:12:44;;;;;;;7.38;5.53;;;;;;;20.13;70.61;100814.22;4977368;28;102328;-48
2022/06/25 10:15:12;;;;;;;6.03;5.23;;;;;;;20.14;70.75;100810.31;4976716;28;103811;-47
2022/06/25 10:17:40;;;;;;;5.72;5.22;;;;;;;20.14;70.76;100824.94;4976383;28;102326;-48
2022/06/25 10:20:08;;;;;;;6.15;5.55;;;;;;;20.14;70.69;100826.91;4975946;28;102184;-48
2022/06/25 10:22:37;;;;;;;5.40;4.90;;;;;;;20.15;70.41;100826.56;4986990;28;102188;-48
2022/06/25 10:25:09;;;;;;;5.63;5.13;;;;;;;20.16;70.55;100816.34;4995682;28;103856;-49
2022/06/25 10:27:41;;;;;;;6.43;5.70;;;;;;;20.14;70.71;100824.13;4996444;28;102189;-49
2022/06/25 10:30:08;;;;;;;5.80;5.30;;;;;;;20.13;70.70;100822.53;4996278;28;102292;-48
2022/06/25 10:32:42;;;;;;;5.57;5.07;;;;;;;20.11;70.72;100819.28;4997061;28;102235;-48
2022/06/25 10:35:09;;;;;;;6.18;5.65;;;;;;;20.10;70.80;100821.22;4995695;28;108233;-47
2022/06/25 10:37:59;;;;;;;6.03;5.53;;;;;;;20.10;70.74;100817.66;4995816;28;102113;-49
2022/06/25 10:40:26;;;;;;;9.27;5.72;;;;;;;20.09;70.67;100811.31;4996496;28;102407;-48
2022/06/25 10:42:59;;;;;;;6.10;5.60;;;;;;;20.08;70.67;100806.94;4996543;28;102318;-48
2022/06/25 10:45:46;;;;;;;5.78;5.28;;;;;;;20.07;70.90;100808.06;4996330;28;103974;-49
2022/06/25 10:48:13;;;;;;;6.82;6.15;;;;;;;20.07;70.82;100812.78;4995884;28;102463;-48
2022/06/25 10:50:47;;;;;;;5.50;5.00;;;;;;;20.11;70.76;100808.22;4995330;28;102108;-48
2022/06/25 10:53:19;;;;;;;6.00;5.38;;;;;;;20.10;70.73;100806.59;4996574;28;102372;-49
2022/06/25 10:56:23;;;;;;;6.10;5.50;;;;;;;20.09;70.77;100805.81;4994900;28;103933;-48
2022/06/25 10:58:52;;;;;;;5.30;4.90;;;;;;;20.11;70.62;100808.22;4995852;28;102206;-48
2022/06/25 11:01:24;;;;;;;5.10;4.70;;;;;;;20.11;70.90;100799.94;4996151;28;102358;-49
2022/06/25 11:03:53;;;;;;;5.32;4.90;;;;;;;20.11;70.91;100799.94;4996476;28;102223;-48
2022/06/25 11:06:22;;;;;;;5.07;4.75;;;;;;;20.12;70.83;100794.09;4995621;28;104215;-49
2022/06/25 11:08:49;;;;;;;;;;;;;;;20.08;70.78;100801.41;4995942;28;101892;-48
2022/06/25 11:11:30;;;;;;;5.28;4.88;;;;;;;20.06;70.52;100806.47;4995890;28;102118;-49
2022/06/25 11:14:00;;;;;;;5.50;5.00;;;;;;;20.04;70.80;100799.66;4996294;28;102173;-49
2022/06/25 11:16:27;;;;;;;6.03;5.53;;;;;;;20.06;70.90;100805.66;4995429;28;104657;-48
2022/06/25 11:18:56;;;;;;;6.20;5.70;;;;;;;20.08;70.95;100803.34;4995112;28;102184;-48
2022/06/25 11:21:31;;;;;;;5.75;5.25;;;;;;;20.07;70.69;100801.75;4995652;28;101895;-49
2022/06/25 11:24:12;;;;;;;5.80;5.25;;;;;;;20.06;70.73;100805.66;4976270;28;102534;-48
2022/06/25 11:29:28;;;;;;;6.18;5.68;;;;;;;20.01;70.92;100794.78;4995593;28;102209;-49